Godman Army Air Field Fort Knox US
ICAO: KFTK
IATA: FTK
Category: Medium
Scheduled Services: No

Elevation: 756 ft
TransAlt. 18000 ft.

Airport Communications:
LOUISVILLE APP/DEP:123.675
ATIS:109.6
CTAF:126.8
GND:121.9
AIR TO AIR:23.75
BASE OPS:126.2
TWR:126.8

KFTK Zoom In..

If you have problems with the map follow the link
https://www.worldairports.se/pages/airport.php?
ICAO=KFTK

Runways:

(A) RW 05 length 2366 ft width 90 ft
---- / hdg 49

(B) RW 15 length 4853 ft width 75 ft
---- / hdg 151

(C) RW 18 length 5185 ft width 148 ft
---- / hdg 179

(D) RW 23 length 2366 ft width 90 ft
---- / hdg 229

(E) RW 33 length 4853 ft width 75 ft
---- / hdg 331

(F) RW 36 length 5185 ft width 148 ft
---- / hdg 359

Location; KFTK
Day. 22 / Time. 11.56 Zulu
* Altimeter: 30.25
* Temperature: 01° c. 33.8°f.
* Wind from: 200° Speed 03 kn.
Dewpoint: -01° c.
Visibility: 10 Statute Miles.
Clouds: Clear (automated report).

KFTK 221156Z AUTO 20003KT 10SM CLR 01/M01 A3025 RMK AO2 SLP252 T00111011 10018 21004 50004


Wind From 200°
Speed 03 kn.

 
 
jpsmedia.com for Web Design worldairports.se 2018   terms of use